Time;durP1;ratioP1;P1;durP2;ratioP2;P2;SDS_P1;SDS_P2;PMS_P1;PMS_P2;Temp;Humidity;BMP_temperature;BMP_pressure;BME280_temperature;BME280_humidity;BME280_pressure;Samples;Min_cycle;Max_cycle;Signal;HPM_P1;HPM_P2
2022/01/05 00:00:00;;;;;;;7.00;0.73;;;1.80;99.90;;;;;;5093897;28;20032;-81
2022/01/05 00:02:25;;;;;;;7.47;1.93;;;1.70;99.90;;;;;;5095680;28;20459;-81
2022/01/05 00:04:51;;;;;;;5.77;0.60;;;1.80;99.90;;;;;;5093825;28;20123;-80
2022/01/05 00:07:17;;;;;;;6.37;0.73;;;1.70;99.90;;;;;;5094763;28;20070;-81
2022/01/05 00:09:43;;;;;;;4.13;0.60;;;1.80;99.90;;;;;;5093549;28;20052;-80
2022/01/05 00:12:10;;;;;;;6.20;2.07;;;1.80;99.90;;;;;;5094552;28;20518;-80
2022/01/05 00:14:35;;;;;;;5.10;1.63;;;1.80;99.90;;;;;;5094726;28;20032;-80
2022/01/05 00:17:01;;;;;;;5.50;0.60;;;1.80;99.90;;;;;;5094513;28;20078;-81
2022/01/05 00:19:27;;;;;;;4.97;1.13;;;1.80;99.90;;;;;;5094149;28;20193;-81
2022/01/05 00:21:53;;;;;;;5.23;0.43;;;1.80;99.90;;;;;;5093684;28;20043;-81
2022/01/05 00:24:19;;;;;;;8.50;0.70;;;1.80;99.90;;;;;;5094379;28;20067;-81
2022/01/05 00:26:44;;;;;;;14.90;1.77;;;1.80;99.90;;;;;;5077144;28;20425;-80
2022/01/05 00:29:10;;;;;;;3.67;1.10;;;1.80;99.90;;;;;;5094182;28;20040;-80
2022/01/05 00:31:35;;;;;;;11.53;1.03;;;1.70;99.90;;;;;;5094070;28;20042;-81
2022/01/05 00:34:01;;;;;;;8.17;1.70;;;1.70;99.90;;;;;;5094563;28;20032;-80
2022/01/05 00:36:26;;;;;;;8.03;0.97;;;1.60;99.90;;;;;;5077055;28;20124;-81
2022/01/05 00:38:53;;;;;;;6.73;1.23;;;1.70;99.90;;;;;;5094566;28;20103;-81
2022/01/05 00:41:19;;;;;;;6.10;1.13;;;1.70;99.90;;;;;;5094167;28;20082;-80
2022/01/05 00:43:44;;;;;;;9.27;1.03;;;1.70;99.90;;;;;;5094423;28;20047;-80
2022/01/05 00:46:10;;;;;;;8.73;0.80;;;1.70;99.90;;;;;;5093474;28;20043;-81
2022/01/05 00:48:36;;;;;;;4.13;0.60;;;1.70;99.90;;;;;;5093527;28;20486;-81
2022/01/05 00:51:03;;;;;;;6.53;1.13;;;1.70;99.90;;;;;;5093603;28;20032;-81
2022/01/05 00:53:29;;;;;;;8.27;3.37;;;1.70;99.90;;;;;;5094460;28;20032;-81
2022/01/05 00:55:55;;;;;;;12.87;5.87;;;1.70;99.90;;;;;;5093235;28;20085;-81
2022/01/05 00:58:20;;;;;;;9.20;2.27;;;1.90;99.90;;;;;;5094335;28;20040;-81
2022/01/05 01:00:46;;;;;;;8.53;2.97;;;2.00;99.90;;;;;;5093566;28;20127;-80
2022/01/05 01:03:12;;;;;;;5.97;1.63;;;2.20;99.90;;;;;;5094029;28;20036;-81
2022/01/05 01:05:37;;;;;;;11.50;4.27;;;2.20;99.90;;;;;;5093140;28;20064;-81
2022/01/05 01:08:03;;;;;;;13.37;2.67;;;2.20;99.90;;;;;;5093889;28;20079;-81
2022/01/05 01:10:29;;;;;;;11.80;3.53;;;2.20;99.90;;;;;;5093653;28;20046;-81
2022/01/05 01:12:55;;;;;;;13.50;2.83;;;2.30;99.90;;;;;;5093429;28;20052;-81
2022/01/05 01:15:20;;;;;;;5.90;2.00;;;2.40;99.90;;;;;;5093539;28;20044;-81
2022/01/05 01:17:46;;;;;;;5.33;2.10;;;2.40;99.90;;;;;;5093059;28;20028;-81
2022/01/05 01:20:12;;;;;;;9.30;1.37;;;2.50;99.90;;;;;;5092954;28;20040;-81
2022/01/05 01:22:37;;;;;;;14.00;3.00;;;2.50;99.90;;;;;;5092841;28;20070;-80
2022/01/05 01:25:05;;;;;;;2.93;1.03;;;2.40;99.90;;;;;;5093786;28;20055;-80
2022/01/05 01:27:31;;;;;;;4.20;1.33;;;2.40;99.90;;;;;;5092487;28;20167;-80
2022/01/05 01:29:57;;;;;;;4.27;0.70;;;2.30;99.90;;;;;;5093785;28;20084;-80
2022/01/05 01:32:22;;;;;;;17.77;2.93;;;2.30;99.90;;;;;;5091500;28;20092;-80
2022/01/05 01:34:48;;;;;;;6.87;1.97;;;2.30;99.90;;;;;;5076974;28;20071;-80
2022/01/05 01:37:14;;;;;;;4.60;0.50;;;2.30;99.90;;;;;;5075209;28;20042;-80
2022/01/05 01:39:40;;;;;;;2.70;0.70;;;2.20;99.90;;;;;;5093970;28;20036;-80
2022/01/05 01:42:06;;;;;;;3.97;0.50;;;2.20;99.90;;;;;;5074875;28;20067;-80
2022/01/05 01:44:31;;;;;;;5.33;0.50;;;2.20;99.90;;;;;;5093679;28;20040;-80
2022/01/05 01:46:57;;;;;;;8.67;0.70;;;2.20;99.90;;;;;;5092407;28;20040;-80
2022/01/05 01:49:23;;;;;;;7.50;1.23;;;2.20;99.90;;;;;;5075825;28;20199;-80
2022/01/05 01:51:48;;;;;;;6.53;0.60;;;2.10;99.90;;;;;;5091956;28;20036;-80
2022/01/05 01:54:14;;;;;;;4.60;1.30;;;2.10;99.90;;;;;;5076199;28;20117;-80
2022/01/05 01:56:41;;;;;;;10.23;1.73;;;2.10;99.90;;;;;;5092245;28;20062;-80
2022/01/05 01:59:07;;;;;;;6.60;1.20;;;2.10;99.90;;;;;;5092852;28;20039;-80
2022/01/05 02:01:33;;;;;;;11.27;3.17;;;2.10;99.90;;;;;;5092791;28;20515;-80
2022/01/05 02:03:58;;;;;;;6.53;1.00;;;2.20;99.90;;;;;;5075705;28;20120;-80
2022/01/05 02:06:24;;;;;;;7.10;2.13;;;2.20;99.90;;;;;;5092252;28;20047;-80
2022/01/05 02:08:50;;;;;;;15.57;2.97;;;2.20;99.90;;;;;;5092287;28;20039;-80
2022/01/05 02:11:15;;;;;;;8.23;2.57;;;2.20;99.90;;;;;;5092576;28;20039;-80
2022/01/05 02:13:41;;;;;;;5.33;0.70;;;2.20;99.90;;;;;;5075115;28;20406;-80
2022/01/05 02:16:07;;;;;;;10.30;2.80;;;2.30;99.90;;;;;;5092746;28;20047;-80
2022/01/05 02:21:07;;;;;;;5.30;1.67;;;2.30;99.90;;;;;;5093044;28;20051;-80
2022/01/05 02:23:34;;;;;;;5.83;2.00;;;2.40;99.90;;;;;;5091745;28;20040;-81
2022/01/05 02:26:04;;;;;;;9.23;1.43;;;2.40;99.90;;;;;;5074461;28;20044;-80
2022/01/05 02:28:29;;;;;;;7.97;1.47;;;2.40;99.90;;;;;;5090858;28;20036;-80
2022/01/05 02:30:56;;;;;;;6.77;1.20;;;2.40;99.90;;;;;;5091081;28;20082;-80
2022/01/05 02:33:22;;;;;;;8.17;1.73;;;2.40;99.90;;;;;;5090376;28;20403;-81
2022/01/05 02:35:48;;;;;;;4.97;1.37;;;2.40;99.90;;;;;;5090421;28;20047;-81
2022/01/05 02:38:22;;;;;;;3.63;0.53;;;2.40;99.90;;;;;;5074060;28;20028;-81
2022/01/05 02:40:48;;;;;;;3.43;1.10;;;2.40;99.90;;;;;;5090552;28;20044;-80
2022/01/05 02:43:14;;;;;;;6.37;1.03;;;2.40;99.90;;;;;;5090088;28;20055;-80
2022/01/05 02:45:40;;;;;;;4.33;0.60;;;2.40;99.90;;;;;;5076818;28;20403;-81
2022/01/05 02:48:06;;;;;;;9.63;1.17;;;2.40;99.90;;;;;;5094453;28;20042;-81
2022/01/05 02:50:31;;;;;;;7.27;0.50;;;2.40;99.90;;;;;;5094070;28;20487;-81
2022/01/05 02:52:57;;;;;;;8.27;1.80;;;2.30;99.90;;;;;;5093751;28;20479;-81
2022/01/05 02:55:23;;;;;;;8.83;0.93;;;2.20;99.90;;;;;;5093397;28;20044;-80
2022/01/05 02:57:48;;;;;;;6.80;1.47;;;2.20;99.90;;;;;;5093990;28;20067;-80
2022/01/05 03:00:16;;;;;;;8.07;0.73;;;2.20;99.90;;;;;;5076893;28;20482;-80
2022/01/05 03:02:42;;;;;;;8.83;1.63;;;2.20;99.90;;;;;;5094081;28;20105;-81
2022/01/05 03:05:09;;;;;;;6.53;2.60;;;2.30;99.90;;;;;;5094159;28;20384;-82
2022/01/05 03:07:39;;;;;;;2.60;0.60;;;2.30;99.90;;;;;;5077074;28;20043;-81
2022/01/05 03:10:06;;;;;;;9.10;1.13;;;2.40;99.90;;;;;;5093616;28;20036;-81
2022/01/05 03:12:32;;;;;;;7.03;2.63;;;2.40;99.90;;;;;;5076936;28;20416;-81
2022/01/05 03:14:57;;;;;;;10.60;1.87;;;2.40;99.90;;;;;;5093673;28;20055;-81
2022/01/05 03:17:23;;;;;;;7.53;2.80;;;2.40;99.90;;;;;;5093497;28;20126;-81
2022/01/05 03:19:48;;;;;;;9.33;3.50;;;2.30;99.90;;;;;;5093907;28;20079;-81
2022/01/05 03:22:14;;;;;;;9.40;2.60;;;2.30;99.90;;;;;;5093482;28;20643;-81
2022/01/05 03:24:39;;;;;;;11.70;3.10;;;2.40;99.90;;;;;;5093794;28;20047;-81
2022/01/05 03:27:05;;;;;;;14.37;4.23;;;2.50;99.90;;;;;;5076301;28;20043;-81
2022/01/05 03:29:31;;;;;;;9.37;4.70;;;2.60;99.90;;;;;;5093050;28;20032;-81
2022/01/05 03:31:57;;;;;;;14.37;5.33;;;2.70;99.90;;;;;;5093167;28;20434;-81
2022/01/05 03:34:23;;;;;;;13.47;4.13;;;2.80;99.90;;;;;;5093310;28;20154;-79
2022/01/05 03:36:48;;;;;;;19.57;4.90;;;2.80;99.90;;;;;;5092924;28;20456;-81
2022/01/05 03:39:15;;;;;;;13.73;5.33;;;2.90;99.90;;;;;;5093467;28;20466;-81
2022/01/05 03:41:41;;;;;;;11.33;2.57;;;2.90;99.90;;;;;;5093028;28;20048;-80
2022/01/05 03:44:08;;;;;;;16.97;2.00;;;3.00;99.90;;;;;;5093616;28;20434;-81
2022/01/05 03:46:33;;;;;;;10.33;4.97;;;3.10;99.90;;;;;;5092647;28;20031;-81
2022/01/05 03:49:00;;;;;;;12.83;4.50;;;3.10;99.90;;;;;;5093106;28;20173;-80
2022/01/05 03:51:25;;;;;;;8.50;2.83;;;3.10;99.90;;;;;;5093493;28;20128;-81
2022/01/05 03:53:51;;;;;;;12.53;3.00;;;3.10;99.90;;;;;;5093615;28;20086;-81
2022/01/05 03:56:17;;;;;;;9.13;1.37;;;3.20;99.90;;;;;;5075473;28;20040;-81
2022/01/05 03:58:44;;;;;;;13.27;4.10;;;3.30;99.90;;;;;;5093798;28;20047;-81
2022/01/05 04:01:10;;;;;;;12.27;2.17;;;3.30;99.90;;;;;;5093466;28;20047;-81
2022/01/05 04:03:35;;;;;;;10.33;2.73;;;3.30;99.90;;;;;;5099815;28;20028;-81
2022/01/05 04:06:01;;;;;;;12.03;2.53;;;3.30;99.90;;;;;;5108559;28;20036;-82
2022/01/05 04:08:26;;;;;;;8.97;2.03;;;3.40;99.90;;;;;;5105802;28;20028;-80
2022/01/05 04:10:52;;;;;;;10.30;3.97;;;3.30;99.90;;;;;;5107858;28;20086;-81
2022/01/05 04:13:18;;;;;;;8.60;3.00;;;3.30;99.90;;;;;;5108332;28;20099;-81
2022/01/05 04:15:44;;;;;;;11.63;3.20;;;3.40;99.90;;;;;;5106846;28;20091;-81
2022/01/05 04:18:09;;;;;;;8.87;3.83;;;3.40;99.90;;;;;;5106765;28;20040;-82
2022/01/05 04:20:35;;;;;;;9.33;3.37;;;3.50;99.90;;;;;;5103648;28;20036;-82
2022/01/05 04:23:00;;;;;;;12.70;5.17;;;3.50;99.90;;;;;;5087937;28;20051;-82
2022/01/05 04:25:26;;;;;;;7.50;2.77;;;3.50;99.90;;;;;;5102126;28;20088;-81
2022/01/05 04:27:52;;;;;;;9.73;2.37;;;3.50;99.90;;;;;;5103341;28;20047;-81
2022/01/05 04:30:17;;;;;;;12.07;2.10;;;3.50;99.90;;;;;;5098939;28;20051;-84
2022/01/05 04:32:43;;;;;;;15.83;4.90;;;3.60;99.90;;;;;;5076565;28;20043;-84
2022/01/05 04:35:12;;;;;;;11.13;3.97;;;3.60;99.90;;;;;;5091953;28;20028;-84
2022/01/05 04:37:38;;;;;;;11.57;2.37;;;3.60;99.90;;;;;;5092230;28;20042;-83
2022/01/05 04:40:04;;;;;;;9.50;3.37;;;3.60;99.90;;;;;;5074970;28;20139;-84
2022/01/05 04:42:30;;;;;;;8.37;3.20;;;3.70;99.90;;;;;;5091793;28;20457;-84
2022/01/05 04:44:55;;;;;;;12.53;4.27;;;3.70;99.90;;;;;;5075072;28;20123;-83
2022/01/05 04:47:22;;;;;;;7.07;2.70;;;3.70;99.90;;;;;;5075279;28;20039;-83
2022/01/05 04:49:48;;;;;;;26.17;4.77;;;3.70;99.90;;;;;;5075490;28;20044;-82
2022/01/05 04:52:13;;;;;;;5.80;2.13;;;3.70;99.90;;;;;;5093306;28;20629;-83
2022/01/05 04:54:39;;;;;;;12.63;3.87;;;3.70;99.90;;;;;;5076731;28;20099;-82
2022/01/05 04:57:06;;;;;;;12.33;3.17;;;3.70;99.90;;;;;;5092028;28;20145;-83
2022/01/05 04:59:32;;;;;;;8.87;3.17;;;3.60;99.90;;;;;;5075833;28;20074;-83
2022/01/05 05:01:58;;;;;;;7.60;2.37;;;3.60;99.90;;;;;;5091448;28;20040;-83
2022/01/05 05:04:23;;;;;;;12.03;2.90;;;3.60;99.90;;;;;;5091461;28;20407;-82
2022/01/05 05:06:50;;;;;;;13.07;3.47;;;3.60;99.90;;;;;;5091178;28;20082;-83
2022/01/05 05:09:16;;;;;;;9.20;2.83;;;3.60;99.90;;;;;;5091356;28;20052;-83
2022/01/05 05:11:41;;;;;;;9.67;2.57;;;3.60;99.90;;;;;;5090717;28;20047;-83
2022/01/05 05:14:07;;;;;;;16.40;3.20;;;3.60;99.90;;;;;;5074363;28;20122;-84
2022/01/05 05:16:33;;;;;;;10.80;2.00;;;3.60;99.90;;;;;;5090889;28;20050;-84
2022/01/05 05:18:58;;;;;;;8.80;2.77;;;3.70;99.90;;;;;;5074450;28;20068;-84
2022/01/05 05:21:24;;;;;;;28.27;3.97;;;3.70;99.90;;;;;;5090785;28;20391;-82
2022/01/05 05:23:49;;;;;;;4.63;1.63;;;3.80;99.90;;;;;;5091530;28;20040;-82
2022/01/05 05:26:15;;;;;;;10.87;2.50;;;3.90;99.90;;;;;;5075928;28;20039;-83
2022/01/05 05:28:40;;;;;;;11.97;4.07;;;4.00;99.90;;;;;;5090854;28;20036;-84
2022/01/05 05:31:06;;;;;;;4.60;1.77;;;3.90;99.90;;;;;;5091433;28;20054;-82
2022/01/05 05:33:32;;;;;;;10.43;5.22;;;3.90;99.90;;;;;;5091384;28;20453;-85
2022/01/05 05:35:58;;;;;;;10.07;1.93;;;3.90;99.90;;;;;;5091952;28;20077;-83
2022/01/05 05:38:23;;;;;;;15.60;4.40;;;3.90;99.90;;;;;;5074350;28;20038;-83
2022/01/05 05:40:49;;;;;;;6.03;2.63;;;3.90;99.90;;;;;;5075066;28;20044;-82
2022/01/05 05:43:14;;;;;;;8.65;3.20;;;4.00;99.90;;;;;;5075217;28;20094;-83
2022/01/05 05:45:40;;;;;;;9.40;3.25;;;3.90;99.90;;;;;;5092122;28;20494;-82
2022/01/05 05:48:05;;;;;;;8.65;3.67;;;3.90;99.90;;;;;;5079113;28;20100;-83
2022/01/05 05:50:32;;;;;;;9.93;3.08;;;4.00;99.90;;;;;;5110526;28;20036;-81
2022/01/05 05:52:57;;;;;;;8.35;2.03;;;4.00;99.90;;;;;;5110169;28;20036;-81
2022/01/05 05:55:23;;;;;;;9.63;2.70;;;4.10;99.90;;;;;;5111707;28;20069;-83
2022/01/05 05:57:49;;;;;;;17.08;5.00;;;4.10;99.90;;;;;;5110426;28;20040;-83
2022/01/05 06:00:15;;;;;;;5.45;1.95;;;4.10;99.90;;;;;;5111758;28;20047;-83
2022/01/05 06:02:41;;;;;;;14.00;4.53;;;4.10;99.90;;;;;;5111497;28;20039;-83
2022/01/05 06:05:07;;;;;;;12.25;3.25;;;4.20;99.90;;;;;;5111217;28;20039;-83
2022/01/05 06:07:32;;;;;;;8.25;3.58;;;4.20;99.90;;;;;;5081188;28;20040;-84
2022/01/05 06:09:59;;;;;;;7.18;2.65;;;4.20;99.90;;;;;;5076222;28;20533;-83
2022/01/05 06:12:25;;;;;;;12.02;5.40;;;4.20;99.90;;;;;;5074777;28;20044;-83
2022/01/05 06:14:51;;;;;;;10.25;2.88;;;4.30;99.90;;;;;;5091846;28;20055;-83
2022/01/05 06:17:16;;;;;;;12.65;4.35;;;4.30;99.90;;;;;;5075410;28;20486;-83
2022/01/05 06:19:42;;;;;;;7.93;3.03;;;4.20;99.90;;;;;;5077033;28;20482;-83
2022/01/05 06:22:08;;;;;;;10.98;2.22;;;4.10;99.90;;;;;;5095468;28;20057;-83
2022/01/05 06:24:35;;;;;;;12.90;2.72;;;4.10;99.90;;;;;;5078989;28;20040;-84
2022/01/05 06:27:01;;;;;;;8.88;5.57;;;4.00;99.90;;;;;;5094917;28;20054;-84
2022/01/05 06:29:26;;;;;;;20.23;3.65;;;4.00;99.90;;;;;;5078310;28;20124;-82
2022/01/05 06:31:52;;;;;;;13.90;3.67;;;4.00;99.90;;;;;;5079026;28;20456;-83
2022/01/05 06:34:18;;;;;;;12.02;4.05;;;3.90;99.90;;;;;;5079271;28;20040;-83
2022/01/05 06:36:43;;;;;;;12.75;4.13;;;3.90;99.90;;;;;;5095138;28;20079;-83
2022/01/05 06:39:09;;;;;;;15.70;5.80;;;3.80;99.90;;;;;;5078297;28;20440;-83
2022/01/05 06:41:34;;;;;;;8.15;2.15;;;3.80;99.90;;;;;;5094225;28;20044;-84
2022/01/05 06:44:00;;;;;;;15.50;8.00;;;3.80;99.90;;;;;;5077986;28;20036;-83
2022/01/05 06:46:25;;;;;;;12.43;6.47;;;3.70;99.90;;;;;;5077525;28;20126;-84
2022/01/05 06:48:51;;;;;;;9.82;4.88;;;3.80;99.90;;;;;;5077525;28;20071;-84
2022/01/05 06:51:17;;;;;;;10.02;2.20;;;3.80;99.90;;;;;;5093817;28;20047;-83
2022/01/05 06:53:43;;;;;;;11.70;2.80;;;3.70;99.90;;;;;;5093902;28;20123;-84
2022/01/05 06:56:08;;;;;;;10.65;4.10;;;3.80;99.90;;;;;;5077476;28;20078;-83
2022/01/05 06:58:34;;;;;;;14.52;4.35;;;3.80;99.90;;;;;;5077118;28;20040;-82
2022/01/05 07:01:00;;;;;;;8.97;2.97;;;3.80;99.90;;;;;;5077245;28;20422;-84
2022/01/05 07:03:25;;;;;;;9.27;3.43;;;3.90;99.90;;;;;;5094813;28;20048;-83
2022/01/05 07:05:51;;;;;;;8.93;2.88;;;3.90;99.90;;;;;;5093816;28;20044;-84
2022/01/05 07:08:18;;;;;;;16.13;4.78;;;4.00;99.90;;;;;;5093630;28;20126;-85
2022/01/05 07:10:43;;;;;;;13.70;3.55;;;4.00;99.90;;;;;;5076836;28;20093;-84
2022/01/05 07:13:09;;;;;;;17.50;4.95;;;4.00;99.90;;;;;;5093388;28;20040;-84
2022/01/05 07:15:35;;;;;;;11.90;1.88;;;4.00;99.90;;;;;;5076798;28;20032;-82
2022/01/05 07:18:00;;;;;;;15.93;4.30;;;4.00;99.90;;;;;;5093946;28;20036;-83
2022/01/05 07:20:26;;;;;;;8.65;2.22;;;4.00;99.90;;;;;;5093418;28;20040;-84
2022/01/05 07:22:51;;;;;;;10.40;3.28;;;4.10;99.90;;;;;;5093264;28;20047;-84
2022/01/05 07:25:17;;;;;;;12.18;3.45;;;4.10;99.90;;;;;;5076631;28;20044;-85
2022/01/05 07:27:43;;;;;;;8.20;1.77;;;4.10;99.90;;;;;;5075992;28;20100;-84
2022/01/05 07:30:09;;;;;;;14.27;4.35;;;4.10;99.90;;;;;;5092202;28;20036;-84
2022/01/05 07:32:36;;;;;;;10.75;2.75;;;4.10;99.90;;;;;;5075724;28;20186;-85
2022/01/05 07:35:03;;;;;;;13.75;3.40;;;4.10;99.90;;;;;;5076302;28;20040;-83
2022/01/05 07:37:28;;;;;;;12.60;2.72;;;4.10;99.90;;;;;;5076334;28;20089;-83
2022/01/05 07:39:54;;;;;;;6.85;2.88;;;4.10;99.90;;;;;;5076231;28;20464;-85
2022/01/05 07:42:19;;;;;;;8.98;2.08;;;4.10;99.90;;;;;;5076303;28;20044;-85
2022/01/05 07:44:45;;;;;;;9.32;2.28;;;4.10;99.90;;;;;;5076200;28;20039;-84
2022/01/05 07:47:11;;;;;;;10.13;3.95;;;4.20;99.90;;;;;;5092852;28;20074;-85
2022/01/05 07:49:38;;;;;;;4.68;3.67;;;4.10;99.90;;;;;;5093146;28;20429;-85
2022/01/05 07:52:05;;;;;;;7.18;3.67;;;4.10;99.90;;;;;;5075456;28;20055;-84
2022/01/05 07:54:32;;;;;;;7.95;4.55;;;4.20;99.90;;;;;;5076237;28;20032;-84
2022/01/05 07:56:58;;;;;;;10.80;3.50;;;4.10;99.90;;;;;;5075662;28;20089;-84
2022/01/05 07:59:23;;;;;;;13.82;4.65;;;4.10;99.90;;;;;;5092540;28;20044;-84
2022/01/05 08:01:49;;;;;;;4.63;1.83;;;4.20;99.90;;;;;;5075302;28;20516;-83
2022/01/05 08:04:15;;;;;;;2.83;1.15;;;4.10;99.90;;;;;;5092419;28;20047;-84
2022/01/05 08:06:41;;;;;;;10.13;3.60;;;4.10;99.90;;;;;;5075072;28;20119;-84
2022/01/05 08:09:07;;;;;;;6.53;1.70;;;4.10;99.90;;;;;;5092600;28;20127;-84
2022/01/05 08:11:33;;;;;;;6.93;3.30;;;4.10;99.90;;;;;;5092049;28;20480;-82
2022/01/05 08:13:58;;;;;;;10.48;2.63;;;4.00;99.90;;;;;;5074929;28;20097;-84
2022/01/05 08:16:24;;;;;;;9.35;2.35;;;4.10;99.90;;;;;;5092255;28;20082;-84
2022/01/05 08:18:49;;;;;;;9.27;5.65;;;4.10;99.90;;;;;;5091542;28;20040;-83
2022/01/05 08:21:17;;;;;;;10.40;4.43;;;4.20;99.90;;;;;;5075217;28;20395;-85
2022/01/05 08:23:43;;;;;;;7.38;3.40;;;4.30;99.90;;;;;;5092293;28;20097;-84
2022/01/05 08:26:08;;;;;;;11.98;2.20;;;4.40;99.90;;;;;;5091968;28;20040;-84
2022/01/05 08:28:34;;;;;;;14.02;1.83;;;4.40;99.90;;;;;;5092059;28;20040;-83
2022/01/05 08:31:00;;;;;;;9.13;0.90;;;4.50;99.90;;;;;;5091343;28;20604;-83
2022/01/05 08:33:26;;;;;;;15.85;3.50;;;4.50;99.90;;;;;;5074237;28;20122;-84
2022/01/05 08:35:52;;;;;;;6.35;0.40;;;4.50;99.90;;;;;;5091151;28;20032;-85
2022/01/05 08:38:18;;;;;;;8.43;2.53;;;4.50;99.90;;;;;;5090714;28;20070;-83
2022/01/05 08:40:44;;;;;;;1.33;0.30;;;4.40;99.90;;;;;;5090566;28;20043;-85
2022/01/05 08:43:12;;;;;;;3.60;0.60;;;4.50;99.90;;;;;;5090958;28;20380;-85
2022/01/05 08:45:38;;;;;;;3.90;0.30;;;4.50;99.90;;;;;;5074604;28;20513;-85
2022/01/05 08:48:05;;;;;;;10.77;1.60;;;4.60;99.90;;;;;;5090416;28;20043;-85
2022/01/05 08:50:32;;;;;;;1.90;0.20;;;4.60;99.90;;;;;;5074143;28;20444;-83
2022/01/05 08:52:58;;;;;;;4.13;0.40;;;4.60;99.90;;;;;;5074628;28;20055;-84
2022/01/05 08:55:28;;;;;;;12.13;0.50;;;4.70;99.90;;;;;;5074476;28;20162;-83
2022/01/05 08:57:54;;;;;;;2.67;0.82;;;4.70;99.90;;;;;;5090097;28;20075;-85
2022/01/05 09:00:20;;;;;;;7.50;1.70;;;4.70;99.90;;;;;;5091686;28;20450;-84
2022/01/05 09:02:46;;;;;;;3.33;0.30;;;4.70;99.90;;;;;;5090811;28;20036;-85
2022/01/05 09:05:12;;;;;;;8.38;0.70;;;4.80;99.90;;;;;;5091564;28;20173;-84
2022/01/05 09:07:37;;;;;;;8.70;1.15;;;4.80;99.90;;;;;;5090998;28;20134;-85
2022/01/05 09:10:04;;;;;;;7.68;1.08;;;4.90;99.90;;;;;;5091683;28;20055;-85
2022/01/05 09:12:30;;;;;;;8.73;0.82;;;4.90;99.90;;;;;;5088889;28;20054;-84
2022/01/05 09:14:56;;;;;;;14.75;2.00;;;5.00;99.90;;;;;;5073792;28;20039;-84
2022/01/05 09:17:21;;;;;;;7.38;0.77;;;5.00;99.90;;;;;;5090597;28;20047;-84
2022/01/05 09:19:47;;;;;;;10.82;1.67;;;5.10;99.90;;;;;;5074310;28;20356;-85
2022/01/05 09:22:13;;;;;;;11.63;2.03;;;5.10;99.90;;;;;;5074050;28;20040;-85
2022/01/05 09:24:40;;;;;;;8.43;1.20;;;5.20;99.90;;;;;;5073862;28;20044;-83
2022/01/05 09:27:06;;;;;;;5.80;0.80;;;5.20;99.90;;;;;;5090215;28;20594;-85
2022/01/05 09:29:35;;;;;;;9.75;0.98;;;5.20;99.90;;;;;;5090758;28;20047;-85
2022/01/05 09:32:05;;;;;;;9.93;1.30;;;5.30;99.90;;;;;;5090373;28;20047;-85
2022/01/05 09:34:31;;;;;;;7.43;0.93;;;5.30;99.90;;;;;;5091691;28;20110;-82
2022/01/05 09:37:07;;;;;;;13.68;2.42;;;5.20;99.90;;;;;;5090800;28;20104;-82
2022/01/05 09:42:17;;;;;;;6.55;0.60;;;5.30;99.90;;;;;;5090243;28;20048;-82
2022/01/05 09:44:45;;;;;;;2.53;0.30;;;5.20;99.90;;;;;;5074517;28;20036;-82
2022/01/05 09:47:48;;;;;;;7.65;0.60;;;5.20;99.90;;;;;;5090529;28;20071;-82
2022/01/05 09:50:14;;;;;;;3.45;0.88;;;5.20;99.90;;;;;;5074025;28;20052;-81
2022/01/05 09:52:45;;;;;;;9.82;3.03;;;5.20;99.90;;;;;;5090493;28;20481;-82
2022/01/05 09:55:12;;;;;;;8.85;1.67;;;5.30;99.90;;;;;;5077580;28;20032;-82
2022/01/05 09:57:43;;;;;;;38.70;18.42;;;5.50;99.90;;;;;;5094754;28;20074;-83
2022/01/05 10:00:11;;;;;;;10.15;1.23;;;5.50;99.90;;;;;;5095436;28;20085;-82
2022/01/05 10:02:37;;;;;;;4.88;0.80;;;5.70;99.90;;;;;;5094667;28;20039;-83
2022/01/05 10:05:03;;;;;;;8.85;0.77;;;5.70;99.90;;;;;;5094252;28;20096;-83
2022/01/05 10:07:29;;;;;;;13.02;1.25;;;5.80;99.90;;;;;;5094731;28;20051;-82
2022/01/05 10:09:54;;;;;;;6.97;0.95;;;5.80;99.90;;;;;;5078237;28;20036;-83
2022/01/05 10:12:20;;;;;;;8.63;1.55;;;5.90;99.90;;;;;;5094903;28;20529;-84
2022/01/05 10:14:48;;;;;;;11.45;2.90;;;5.90;99.90;;;;;;5078386;28;20040;-84
2022/01/05 10:17:24;;;;;;;6.72;1.05;;;5.90;99.90;;;;;;5079814;28;20051;-80
2022/01/05 10:20:01;;;;;;;6.05;0.70;;;6.00;99.90;;;;;;5080063;28;20067;-81
2022/01/05 10:22:40;;;;;;;6.97;2.05;;;6.00;99.90;;;;;;5097506;28;20040;-83
2022/01/05 10:25:20;;;;;;;11.50;1.08;;;6.00;99.90;;;;;;5098040;28;20040;-81
2022/01/05 10:28:03;;;;;;;11.75;1.23;;;6.10;99.90;;;;;;5097374;28;20040;-82
2022/01/05 10:30:40;;;;;;;9.35;0.65;;;6.10;99.90;;;;;;5095405;28;20043;-79
2022/01/05 10:33:07;;;;;;;7.72;1.40;;;6.20;99.90;;;;;;5093743;28;20063;-79
2022/01/05 10:35:33;;;;;;;9.05;1.33;;;6.20;99.90;;;;;;5095719;28;20028;-81
2022/01/05 10:38:09;;;;;;;9.05;0.85;;;6.30;99.90;;;;;;5079001;28;20106;-81
2022/01/05 10:40:40;;;;;;;4.85;0.85;;;6.50;99.90;;;;;;5096301;28;20050;-82
2022/01/05 10:43:11;;;;;;;7.65;1.02;;;6.70;99.90;;;;;;5096340;28;20040;-81
2022/01/05 10:45:44;;;;;;;14.43;1.30;;;6.90;99.90;;;;;;5095793;28;20131;-81
2022/01/05 10:48:16;;;;;;;4.78;1.17;;;7.10;99.90;;;;;;5096410;28;20044;-80
2022/01/05 10:50:43;;;;;;;15.02;1.42;;;7.20;99.90;;;;;;5078578;28;20513;-80
2022/01/05 10:53:13;;;;;;;12.13;0.90;;;7.30;99.90;;;;;;5095464;28;20067;-80
2022/01/05 10:55:41;;;;;;;9.20;0.68;;;7.40;99.90;;;;;;5095916;28;20036;-83
2022/01/05 10:58:15;;;;;;;6.78;1.13;;;7.50;99.90;;;;;;5096679;28;20050;-81
2022/01/05 11:00:47;;;;;;;28.88;9.65;;;7.70;99.90;;;;;;5095517;28;20386;-82
2022/01/05 11:03:35;;;;;;;12.35;3.65;;;7.70;99.90;;;;;;5093024;28;20043;-80
2022/01/05 11:06:03;;;;;;;6.95;1.50;;;7.70;99.90;;;;;;5055896;28;20097;-79
2022/01/05 11:08:45;;;;;;;12.85;3.17;;;7.80;99.90;;;;;;5072706;28;20082;-79
2022/01/05 11:11:30;;;;;;;6.25;1.83;;;7.90;99.90;;;;;;5083922;28;20054;-80
2022/01/05 11:13:55;;;;;;;6.10;1.75;;;7.90;99.90;;;;;;5093223;28;20134;-80
2022/01/05 11:16:29;;;;;;;8.82;1.77;;;8.00;99.90;;;;;;5092854;28;20586;-81
2022/01/05 11:19:13;;;;;;;8.43;1.45;;;8.10;99.90;;;;;;5089819;28;20041;-80
2022/01/05 11:21:53;;;;;;;11.13;1.08;;;8.10;99.90;;;;;;5079863;28;20047;-82
2022/01/05 11:24:19;;;;;;;11.52;3.38;;;8.10;99.90;;;;;;5094715;28;20044;-80
2022/01/05 11:26:44;;;;;;;8.23;1.27;;;8.10;99.90;;;;;;5078541;28;20513;-80
2022/01/05 11:29:10;;;;;;;11.85;1.67;;;8.10;99.90;;;;;;5077642;28;20040;-81
2022/01/05 11:31:36;;;;;;;8.60;1.50;;;8.20;99.90;;;;;;5093804;28;20133;-81
2022/01/05 11:34:01;;;;;;;9.98;2.63;;;8.30;99.90;;;;;;5094344;28;20375;-80
2022/01/05 11:36:27;;;;;;;7.78;2.58;;;8.30;99.90;;;;;;5084522;28;20040;-80
2022/01/05 11:38:53;;;;;;;7.45;1.27;;;8.30;99.90;;;;;;5094059;28;20433;-80
2022/01/05 11:41:19;;;;;;;11.75;1.50;;;8.50;99.90;;;;;;5092938;28;20032;-80
2022/01/05 11:43:46;;;;;;;11.32;2.22;;;8.60;99.90;;;;;;5093832;28;20498;-80
2022/01/05 11:46:20;;;;;;;7.90;1.60;;;8.70;99.90;;;;;;5093655;28;20122;-80
2022/01/05 11:49:07;;;;;;;9.65;1.33;;;8.60;99.90;;;;;;5104912;28;20047;-80
2022/01/05 11:51:55;;;;;;;10.38;2.17;;;8.50;99.90;;;;;;5093350;28;20061;-80
2022/01/05 11:54:27;;;;;;;30.00;13.55;;;8.60;99.90;;;;;;5098851;28;20625;-80
2022/01/05 11:57:05;;;;;;;16.50;4.63;;;8.60;99.90;;;;;;5104003;28;20171;-81
2022/01/05 11:59:35;;;;;;;14.50;4.15;;;8.60;99.90;;;;;;5077276;28;20047;-80
2022/01/05 12:02:01;;;;;;;10.98;1.90;;;8.60;99.90;;;;;;5085572;28;20040;-81
2022/01/05 12:04:27;;;;;;;18.73;3.28;;;8.50;99.90;;;;;;5093705;28;20036;-81
2022/01/05 12:06:55;;;;;;;11.25;1.70;;;8.50;99.90;;;;;;5093628;28;20402;-81
2022/01/05 12:09:23;;;;;;;7.93;2.10;;;8.60;99.90;;;;;;5094442;28;20044;-80
2022/01/05 12:11:50;;;;;;;11.85;1.80;;;8.60;99.90;;;;;;5086282;28;20479;-81
2022/01/05 12:14:21;;;;;;;14.68;3.35;;;8.50;99.90;;;;;;5093274;28;20047;-81
2022/01/05 12:16:59;;;;;;;9.23;2.13;;;8.50;99.90;;;;;;5075779;28;20047;-81
2022/01/05 12:19:26;;;;;;;13.13;2.00;;;8.60;99.90;;;;;;5091941;28;20043;-81
2022/01/05 12:21:55;;;;;;;7.90;1.60;;;8.50;99.90;;;;;;5099138;28;20171;-82
2022/01/05 12:24:22;;;;;;;8.82;2.10;;;8.50;99.90;;;;;;5113307;28;20092;-81
2022/01/05 12:27:37;;;;;;;9.32;2.13;;;8.40;99.90;;;;;;5115336;28;20052;-80
2022/01/05 12:30:18;;;;;;;5.93;1.30;;;8.40;99.90;;;;;;5067748;28;20080;-81
2022/01/05 12:32:46;;;;;;;11.43;2.13;;;8.50;99.90;;;;;;5108362;28;20451;-77
2022/01/05 12:35:17;;;;;;;13.45;2.40;;;8.40;99.90;;;;;;5111546;28;20417;-78
2022/01/05 12:37:47;;;;;;;7.53;1.23;;;8.50;99.90;;;;;;5073955;28;20043;-79
2022/01/05 12:40:40;;;;;;;5.88;0.98;;;8.50;99.90;;;;;;5096313;28;20043;-78
2022/01/05 12:43:08;;;;;;;10.98;1.70;;;8.40;99.90;;;;;;5090655;28;20060;-81
2022/01/05 12:45:43;;;;;;;11.27;1.85;;;8.60;99.90;;;;;;5085546;28;20044;-79
2022/01/05 12:48:35;;;;;;;11.00;1.50;;;8.70;99.90;;;;;;5091185;28;20048;-79
2022/01/05 12:51:22;;;;;;;10.80;1.63;;;8.50;99.90;;;;;;5105839;28;20123;-78
2022/01/05 12:54:01;;;;;;;14.40;2.03;;;8.40;99.90;;;;;;5111256;28;20177;-79
2022/01/05 12:56:46;;;;;;;7.85;1.13;;;8.30;99.90;;;;;;5103204;28;20161;-79
2022/01/05 12:59:29;;;;;;;11.07;1.67;;;8.20;99.90;;;;;;5089481;28;20071;-80